sensor_id;sensor_type;location;lat;lon;timestamp;temperature;humidity
20862;DHT22;10591;52.532;13.348;2024-02-21T00:01:15;8.30;78.20
20862;DHT22;10591;52.532;13.348;2024-02-21T00:03:46;8.37;78.03
20862;DHT22;10591;52.532;13.348;2024-02-21T00:06:17;8.32;77.85
20862;DHT22;10591;52.532;13.348;2024-02-21T00:08:48;8.24;78.28
20862;DHT22;10591;52.532;13.348;2024-02-21T00:11:21;8.33;78.27
20862;DHT22;10591;52.532;13.348;2024-02-21T00:13:52;8.30;78.22
20862;DHT22;10591;52.532;13.348;2024-02-21T00:16:24;8.26;78.41
20862;DHT22;10591;52.532;13.348;2024-02-21T00:18:57;8.30;78.54
20862;DHT22;10591;52.532;13.348;2024-02-21T00:21:29;8.27;78.51
20862;DHT22;10591;52.532;13.348;2024-02-21T00:23:59;8.16;79.12
20862;DHT22;10591;52.532;13.348;2024-02-21T00:26:30;8.22;79.28
20862;DHT22;10591;52.532;13.348;2024-02-21T00:29:01;8.23;79.19
20862;DHT22;10591;52.532;13.348;2024-02-21T00:31:34;8.25;79.12
20862;DHT22;10591;52.532;13.348;2024-02-21T00:34:05;8.18;79.59
20862;DHT22;10591;52.532;13.348;2024-02-21T00:36:35;8.08;79.35
20862;DHT22;10591;52.532;13.348;2024-02-21T00:39:10;8.28;78.98
20862;DHT22;10591;52.532;13.348;2024-02-21T00:41:41;8.16;79.41
20862;DHT22;10591;52.532;13.348;2024-02-21T00:44:11;8.14;80.24
20862;DHT22;10591;52.532;13.348;2024-02-21T00:46:42;8.17;80.15
20862;DHT22;10591;52.532;13.348;2024-02-21T00:49:13;8.32;79.74
20862;DHT22;10591;52.532;13.348;2024-02-21T00:51:44;8.12;79.50
20862;DHT22;10591;52.532;13.348;2024-02-21T00:54:15;8.15;79.75
20862;DHT22;10591;52.532;13.348;2024-02-21T00:56:45;8.22;78.89
20862;DHT22;10591;52.532;13.348;2024-02-21T00:59:16;8.12;79.16
20862;DHT22;10591;52.532;13.348;2024-02-21T01:01:46;8.07;79.30
20862;DHT22;10591;52.532;13.348;2024-02-21T01:04:17;8.10;79.08
20862;DHT22;10591;52.532;13.348;2024-02-21T01:06:48;8.14;78.77
20862;DHT22;10591;52.532;13.348;2024-02-21T01:09:19;8.14;78.85
20862;DHT22;10591;52.532;13.348;2024-02-21T01:11:49;8.08;78.86
20862;DHT22;10591;52.532;13.348;2024-02-21T01:14:22;8.08;78.96
20862;DHT22;10591;52.532;13.348;2024-02-21T01:16:53;7.99;79.16
20862;DHT22;10591;52.532;13.348;2024-02-21T01:19:30;8.00;79.21
20862;DHT22;10591;52.532;13.348;2024-02-21T01:22:02;8.10;78.84
20862;DHT22;10591;52.532;13.348;2024-02-21T01:24:33;8.16;78.43
20862;DHT22;10591;52.532;13.348;2024-02-21T01:27:04;8.09;78.64
20862;DHT22;10591;52.532;13.348;2024-02-21T01:29:36;8.08;78.61
20862;DHT22;10591;52.532;13.348;2024-02-21T01:32:07;8.30;78.24
20862;DHT22;10591;52.532;13.348;2024-02-21T01:34:38;8.19;78.39
20862;DHT22;10591;52.532;13.348;2024-02-21T01:37:10;8.11;78.35
20862;DHT22;10591;52.532;13.348;2024-02-21T01:39:41;8.16;78.11
20862;DHT22;10591;52.532;13.348;2024-02-21T01:42:12;8.24;78.16
20862;DHT22;10591;52.532;13.348;2024-02-21T01:44:42;8.18;77.97
20862;DHT22;10591;52.532;13.348;2024-02-21T01:47:14;8.11;78.28
20862;DHT22;10591;52.532;13.348;2024-02-21T01:49:46;8.16;78.31
20862;DHT22;10591;52.532;13.348;2024-02-21T01:52:20;8.31;77.65
20862;DHT22;10591;52.532;13.348;2024-02-21T01:54:51;8.18;78.19
20862;DHT22;10591;52.532;13.348;2024-02-21T01:57:23;8.28;78.11
20862;DHT22;10591;52.532;13.348;2024-02-21T01:59:53;8.23;78.10
20862;DHT22;10591;52.532;13.348;2024-02-21T02:02:25;8.26;77.89
20862;DHT22;10591;52.532;13.348;2024-02-21T02:04:56;8.41;81.56
20862;DHT22;10591;52.532;13.348;2024-02-21T02:07:28;8.34;79.01
20862;DHT22;10591;52.532;13.348;2024-02-21T02:09:58;8.46;79.04
20862;DHT22;10591;52.532;13.348;2024-02-21T02:12:30;8.44;79.03
20862;DHT22;10591;52.532;13.348;2024-02-21T02:15:02;8.36;78.13
20862;DHT22;10591;52.532;13.348;2024-02-21T02:17:36;8.36;78.55
20862;DHT22;10591;52.532;13.348;2024-02-21T02:20:07;8.28;78.76
20862;DHT22;10591;52.532;13.348;2024-02-21T02:22:39;8.09;79.93
20862;DHT22;10591;52.532;13.348;2024-02-21T02:25:12;8.02;80.34
20862;DHT22;10591;52.532;13.348;2024-02-21T02:27:43;8.00;80.91
20862;DHT22;10591;52.532;13.348;2024-02-21T02:30:14;8.02;80.60
20862;DHT22;10591;52.532;13.348;2024-02-21T02:32:46;8.02;80.84
20862;DHT22;10591;52.532;13.348;2024-02-21T02:35:17;7.86;81.81
20862;DHT22;10591;52.532;13.348;2024-02-21T02:37:50;7.86;81.76
20862;DHT22;10591;52.532;13.348;2024-02-21T02:40:22;7.84;82.40
20862;DHT22;10591;52.532;13.348;2024-02-21T02:42:53;7.87;82.55
20862;DHT22;10591;52.532;13.348;2024-02-21T02:45:25;7.82;82.99
20862;DHT22;10591;52.532;13.348;2024-02-21T02:47:56;7.66;83.60
20862;DHT22;10591;52.532;13.348;2024-02-21T02:50:29;7.66;83.98
20862;DHT22;10591;52.532;13.348;2024-02-21T02:53:01;7.72;83.90
20862;DHT22;10591;52.532;13.348;2024-02-21T02:55:31;7.66;83.89
20862;DHT22;10591;52.532;13.348;2024-02-21T02:58:02;7.65;84.07
20862;DHT22;10591;52.532;13.348;2024-02-21T03:00:33;7.60;84.50
20862;DHT22;10591;52.532;13.348;2024-02-21T03:03:06;7.64;84.90
20862;DHT22;10591;52.532;13.348;2024-02-21T03:05:38;7.67;85.07
20862;DHT22;10591;52.532;13.348;2024-02-21T03:08:09;7.60;85.03
20862;DHT22;10591;52.532;13.348;2024-02-21T03:10:40;7.68;85.16
20862;DHT22;10591;52.532;13.348;2024-02-21T03:13:11;7.54;85.29
20862;DHT22;10591;52.532;13.348;2024-02-21T03:15:42;7.49;85.97
20862;DHT22;10591;52.532;13.348;2024-02-21T03:18:12;7.40;86.24
20862;DHT22;10591;52.532;13.348;2024-02-21T03:20:43;7.58;85.71
20862;DHT22;10591;52.532;13.348;2024-02-21T03:23:14;7.43;86.54
20862;DHT22;10591;52.532;13.348;2024-02-21T03:25:46;7.44;86.73
20862;DHT22;10591;52.532;13.348;2024-02-21T03:28:17;7.37;86.89
20862;DHT22;10591;52.532;13.348;2024-02-21T03:30:51;7.47;86.69
20862;DHT22;10591;52.532;13.348;2024-02-21T03:33:22;7.32;87.40
20862;DHT22;10591;52.532;13.348;2024-02-21T03:35:54;7.34;87.58
20862;DHT22;10591;52.532;13.348;2024-02-21T03:38:25;7.40;87.41
20862;DHT22;10591;52.532;13.348;2024-02-21T03:40:56;7.25;87.91
20862;DHT22;10591;52.532;13.348;2024-02-21T03:43:26;7.28;87.92
20862;DHT22;10591;52.532;13.348;2024-02-21T03:45:57;7.30;88.17
20862;DHT22;10591;52.532;13.348;2024-02-21T03:48:28;7.33;87.71
20862;DHT22;10591;52.532;13.348;2024-02-21T03:50:58;7.22;88.33
20862;DHT22;10591;52.532;13.348;2024-02-21T03:53:29;7.18;88.27
20862;DHT22;10591;52.532;13.348;2024-02-21T03:56:04;7.22;88.24
20862;DHT22;10591;52.532;13.348;2024-02-21T03:58:36;7.30;87.99
20862;DHT22;10591;52.532;13.348;2024-02-21T04:01:06;7.26;88.05
20862;DHT22;10591;52.532;13.348;2024-02-21T04:03:38;7.29;88.17
20862;DHT22;10591;52.532;13.348;2024-02-21T04:06:10;7.36;87.96
20862;DHT22;10591;52.532;13.348;2024-02-21T04:08:42;7.25;87.98
20862;DHT22;10591;52.532;13.348;2024-02-21T04:11:12;7.25;88.29
20862;DHT22;10591;52.532;13.348;2024-02-21T04:13:43;7.27;88.03
20862;DHT22;10591;52.532;13.348;2024-02-21T04:16:14;7.37;88.10
20862;DHT22;10591;52.532;13.348;2024-02-21T04:18:45;7.30;88.12
20862;DHT22;10591;52.532;13.348;2024-02-21T04:21:17;7.30;87.99
20862;DHT22;10591;52.532;13.348;2024-02-21T04:23:48;7.22;88.13
20862;DHT22;10591;52.532;13.348;2024-02-21T04:26:18;7.31;88.08
20862;DHT22;10591;52.532;13.348;2024-02-21T04:28:49;7.32;88.13
20862;DHT22;10591;52.532;13.348;2024-02-21T04:31:20;7.28;88.03
20862;DHT22;10591;52.532;13.348;2024-02-21T04:33:50;7.25;88.13
20862;DHT22;10591;52.532;13.348;2024-02-21T04:36:21;7.31;87.82
20862;DHT22;10591;52.532;13.348;2024-02-21T04:38:53;7.50;87.46
20862;DHT22;10591;52.532;13.348;2024-02-21T04:41:24;7.50;87.37
20862;DHT22;10591;52.532;13.348;2024-02-21T04:43:55;7.39;87.48
20862;DHT22;10591;52.532;13.348;2024-02-21T04:46:26;7.36;87.60
20862;DHT22;10591;52.532;13.348;2024-02-21T04:48:56;7.48;87.32
20862;DHT22;10591;52.532;13.348;2024-02-21T04:51:27;7.40;87.73
20862;DHT22;10591;52.532;13.348;2024-02-21T04:53:57;7.44;87.15
20862;DHT22;10591;52.532;13.348;2024-02-21T04:56:29;7.38;87.54
20862;DHT22;10591;52.532;13.348;2024-02-21T04:58:59;7.39;87.37
20862;DHT22;10591;52.532;13.348;2024-02-21T05:01:30;7.36;87.58
20862;DHT22;10591;52.532;13.348;2024-02-21T05:04:01;7.49;87.33
20862;DHT22;10591;52.532;13.348;2024-02-21T05:06:32;7.32;87.57
20862;DHT22;10591;52.532;13.348;2024-02-21T05:09:05;7.47;87.39
20862;DHT22;10591;52.532;13.348;2024-02-21T05:11:37;7.44;87.31
20862;DHT22;10591;52.532;13.348;2024-02-21T05:14:08;7.48;87.10
20862;DHT22;10591;52.532;13.348;2024-02-21T05:16:39;7.48;86.92
20862;DHT22;10591;52.532;13.348;2024-02-21T05:19:10;7.50;87.11
20862;DHT22;10591;52.532;13.348;2024-02-21T05:21:41;7.52;86.47
20862;DHT22;10591;52.532;13.348;2024-02-21T05:24:12;7.40;86.81
20862;DHT22;10591;52.532;13.348;2024-02-21T05:26:42;7.57;86.71
20862;DHT22;10591;52.532;13.348;2024-02-21T05:29:13;7.51;86.88
20862;DHT22;10591;52.532;13.348;2024-02-21T05:34:27;7.48;86.65
20862;DHT22;10591;52.532;13.348;2024-02-21T05:36:58;7.58;86.71
20862;DHT22;10591;52.532;13.348;2024-02-21T05:39:30;7.58;86.69
20862;DHT22;10591;52.532;13.348;2024-02-21T05:42:01;7.47;86.55
20862;DHT22;10591;52.532;13.348;2024-02-21T05:44:34;7.58;86.49
20862;DHT22;10591;52.532;13.348;2024-02-21T05:47:04;7.42;86.99
20862;DHT22;10591;52.532;13.348;2024-02-21T05:49:37;7.52;86.43
20862;DHT22;10591;52.532;13.348;2024-02-21T05:52:08;7.61;86.29
20862;DHT22;10591;52.532;13.348;2024-02-21T05:54:39;7.62;86.23
20862;DHT22;10591;52.532;13.348;2024-02-21T05:57:10;7.52;86.33
20862;DHT22;10591;52.532;13.348;2024-02-21T05:59:40;7.44;86.79
20862;DHT22;10591;52.532;13.348;2024-02-21T06:02:12;7.60;86.36
20862;DHT22;10591;52.532;13.348;2024-02-21T06:04:44;7.56;86.48
20862;DHT22;10591;52.532;13.348;2024-02-21T06:07:16;7.58;86.49
20862;DHT22;10591;52.532;13.348;2024-02-21T06:09:47;7.48;86.55
20862;DHT22;10591;52.532;13.348;2024-02-21T06:12:17;7.56;86.26
20862;DHT22;10591;52.532;13.348;2024-02-21T06:14:48;7.62;85.89
20862;DHT22;10591;52.532;13.348;2024-02-21T06:17:20;7.67;86.08
20862;DHT22;10591;52.532;13.348;2024-02-21T06:19:51;7.58;85.94
20862;DHT22;10591;52.532;13.348;2024-02-21T06:22:22;7.58;86.28
20862;DHT22;10591;52.532;13.348;2024-02-21T06:24:52;7.64;86.05
20862;DHT22;10591;52.532;13.348;2024-02-21T06:27:23;7.65;85.73
20862;DHT22;10591;52.532;13.348;2024-02-21T06:29:55;7.60;85.86
20862;DHT22;10591;52.532;13.348;2024-02-21T06:32:26;7.58;86.12
20862;DHT22;10591;52.532;13.348;2024-02-21T06:34:56;7.68;85.79
20862;DHT22;10591;52.532;13.348;2024-02-21T06:37:28;7.69;85.49
20862;DHT22;10591;52.532;13.348;2024-02-21T06:40:01;7.72;85.84
20862;DHT22;10591;52.532;13.348;2024-02-21T06:42:34;7.66;85.78
20862;DHT22;10591;52.532;13.348;2024-02-21T06:45:05;7.62;85.91
20862;DHT22;10591;52.532;13.348;2024-02-21T06:47:36;7.72;85.57
20862;DHT22;10591;52.532;13.348;2024-02-21T06:50:08;7.83;85.41
20862;DHT22;10591;52.532;13.348;2024-02-21T06:52:39;7.84;84.97
20862;DHT22;10591;52.532;13.348;2024-02-21T06:55:11;7.83;85.50
20862;DHT22;10591;52.532;13.348;2024-02-21T06:57:43;7.85;85.23
20862;DHT22;10591;52.532;13.348;2024-02-21T07:00:15;7.86;85.14
20862;DHT22;10591;52.532;13.348;2024-02-21T07:02:46;7.91;84.76
20862;DHT22;10591;52.532;13.348;2024-02-21T07:05:18;7.84;84.81
20862;DHT22;10591;52.532;13.348;2024-02-21T07:07:49;7.91;84.73
20862;DHT22;10591;52.532;13.348;2024-02-21T07:10:20;7.81;84.90
20862;DHT22;10591;52.532;13.348;2024-02-21T07:12:53;7.88;84.87
20862;DHT22;10591;52.532;13.348;2024-02-21T07:15:24;7.92;84.58
20862;DHT22;10591;52.532;13.348;2024-02-21T07:17:56;8.00;84.24
20862;DHT22;10591;52.532;13.348;2024-02-21T07:20:26;7.92;84.32
20862;DHT22;10591;52.532;13.348;2024-02-21T07:22:59;7.96;84.14
20862;DHT22;10591;52.532;13.348;2024-02-21T07:25:30;8.03;83.74
20862;DHT22;10591;52.532;13.348;2024-02-21T07:28:01;7.97;83.94
20862;DHT22;10591;52.532;13.348;2024-02-21T07:30:32;8.00;83.85
20862;DHT22;10591;52.532;13.348;2024-02-21T07:33:04;8.16;83.56
20862;DHT22;10591;52.532;13.348;2024-02-21T07:35:37;8.00;83.73
20862;DHT22;10591;52.532;13.348;2024-02-21T07:38:11;8.14;83.24
20862;DHT22;10591;52.532;13.348;2024-02-21T07:40:44;8.20;82.77
20862;DHT22;10591;52.532;13.348;2024-02-21T07:43:15;8.22;82.63
20862;DHT22;10591;52.532;13.348;2024-02-21T07:45:46;8.20;82.84
20862;DHT22;10591;52.532;13.348;2024-02-21T07:48:17;8.28;82.55
20862;DHT22;10591;52.532;13.348;2024-02-21T07:50:49;8.17;82.81
20862;DHT22;10591;52.532;13.348;2024-02-21T07:53:20;8.20;82.93
20862;DHT22;10591;52.532;13.348;2024-02-21T07:55:51;8.29;82.67
20862;DHT22;10591;52.532;13.348;2024-02-21T07:58:22;8.34;82.25
20862;DHT22;10591;52.532;13.348;2024-02-21T08:00:52;8.44;81.89
20862;DHT22;10591;52.532;13.348;2024-02-21T08:03:23;8.26;82.38
20862;DHT22;10591;52.532;13.348;2024-02-21T08:05:55;8.49;81.46
20862;DHT22;10591;52.532;13.348;2024-02-21T08:08:26;8.34;82.11
20862;DHT22;10591;52.532;13.348;2024-02-21T08:10:58;8.35;82.16
20862;DHT22;10591;52.532;13.348;2024-02-21T08:13:29;8.42;81.58
20862;DHT22;10591;52.532;13.348;2024-02-21T08:16:01;8.44;81.44
20862;DHT22;10591;52.532;13.348;2024-02-21T08:18:33;8.50;81.55
20862;DHT22;10591;52.532;13.348;2024-02-21T08:21:05;8.63;81.26
20862;DHT22;10591;52.532;13.348;2024-02-21T08:23:36;8.54;81.18
20862;DHT22;10591;52.532;13.348;2024-02-21T08:26:06;8.56;81.11
20862;DHT22;10591;52.532;13.348;2024-02-21T08:28:37;8.69;80.77
20862;DHT22;10591;52.532;13.348;2024-02-21T08:31:10;8.56;81.09
20862;DHT22;10591;52.532;13.348;2024-02-21T08:33:43;8.63;80.52
20862;DHT22;10591;52.532;13.348;2024-02-21T08:36:19;8.72;79.93
20862;DHT22;10591;52.532;13.348;2024-02-21T08:38:50;8.84;79.96
20862;DHT22;10591;52.532;13.348;2024-02-21T08:41:22;8.79;79.87
20862;DHT22;10591;52.532;13.348;2024-02-21T08:43:56;8.96;79.93
20862;DHT22;10591;52.532;13.348;2024-02-21T08:46:27;9.04;79.33
20862;DHT22;10591;52.532;13.348;2024-02-21T08:48:58;9.11;79.14
20862;DHT22;10591;52.532;13.348;2024-02-21T08:51:29;9.26;78.43
20862;DHT22;10591;52.532;13.348;2024-02-21T08:54:00;9.36;77.90
20862;DHT22;10591;52.532;13.348;2024-02-21T08:56:32;9.38;77.81
20862;DHT22;10591;52.532;13.348;2024-02-21T08:59:05;9.37;78.00
20862;DHT22;10591;52.532;13.348;2024-02-21T09:01:37;9.49;77.23
20862;DHT22;10591;52.532;13.348;2024-02-21T09:04:08;9.21;78.32
20862;DHT22;10591;52.532;13.348;2024-02-21T09:06:38;9.36;77.65
20862;DHT22;10591;52.532;13.348;2024-02-21T09:09:11;9.38;77.63
20862;DHT22;10591;52.532;13.348;2024-02-21T09:11:42;9.33;77.72
20862;DHT22;10591;52.532;13.348;2024-02-21T09:14:12;9.30;77.84
20862;DHT22;10591;52.532;13.348;2024-02-21T09:16:44;9.40;79.07
20862;DHT22;10591;52.532;13.348;2024-02-21T09:19:14;10.60;80.96
20862;DHT22;10591;52.532;13.348;2024-02-21T09:21:48;11.40;74.91
20862;DHT22;10591;52.532;13.348;2024-02-21T09:24:19;11.98;71.58
20862;DHT22;10591;52.532;13.348;2024-02-21T09:26:49;12.18;69.49
20862;DHT22;10591;52.532;13.348;2024-02-21T09:29:20;11.73;69.46
20862;DHT22;10591;52.532;13.348;2024-02-21T09:31:54;11.01;70.99
20862;DHT22;10591;52.532;13.348;2024-02-21T09:34:25;10.57;72.73
20862;DHT22;10591;52.532;13.348;2024-02-21T09:36:57;10.27;73.77
20862;DHT22;10591;52.532;13.348;2024-02-21T09:39:28;10.27;73.79
20862;DHT22;10591;52.532;13.348;2024-02-21T09:42:05;10.16;74.37
20862;DHT22;10591;52.532;13.348;2024-02-21T09:44:36;10.02;74.85
20862;DHT22;10591;52.532;13.348;2024-02-21T09:47:24;10.24;74.36
20862;DHT22;10591;52.532;13.348;2024-02-21T09:49:55;10.24;73.84
20862;DHT22;10591;52.532;13.348;2024-02-21T09:52:27;10.20;73.75
20862;DHT22;10591;52.532;13.348;2024-02-21T09:54:59;10.16;74.11
20862;DHT22;10591;52.532;13.348;2024-02-21T09:57:31;10.44;73.90
20862;DHT22;10591;52.532;13.348;2024-02-21T10:00:06;10.33;73.85
20862;DHT22;10591;52.532;13.348;2024-02-21T10:02:40;10.30;74.08
20862;DHT22;10591;52.532;13.348;2024-02-21T10:05:11;10.07;74.52
20862;DHT22;10591;52.532;13.348;2024-02-21T10:07:44;10.14;74.62
20862;DHT22;10591;52.532;13.348;2024-02-21T10:10:15;10.23;73.86
20862;DHT22;10591;52.532;13.348;2024-02-21T10:12:50;10.22;74.21
20862;DHT22;10591;52.532;13.348;2024-02-21T10:15:24;10.12;74.45
20862;DHT22;10591;52.532;13.348;2024-02-21T10:18:00;10.15;74.13
20862;DHT22;10591;52.532;13.348;2024-02-21T10:20:33;10.11;74.61
20862;DHT22;10591;52.532;13.348;2024-02-21T10:23:05;10.03;74.49
20862;DHT22;10591;52.532;13.348;2024-02-21T10:25:39;10.10;74.58
20862;DHT22;10591;52.532;13.348;2024-02-21T10:28:13;10.06;74.24
20862;DHT22;10591;52.532;13.348;2024-02-21T10:30:51;10.34;73.47
20862;DHT22;10591;52.532;13.348;2024-02-21T10:33:22;10.32;73.63
20862;DHT22;10591;52.532;13.348;2024-02-21T10:36:05;10.38;73.53
20862;DHT22;10591;52.532;13.348;2024-02-21T10:38:27;10.59;73.00
20862;DHT22;10591;52.532;13.348;2024-02-21T10:41:01;10.52;73.11
20862;DHT22;10591;52.532;13.348;2024-02-21T10:43:38;10.43;73.33
20862;DHT22;10591;52.532;13.348;2024-02-21T10:46:11;10.22;74.17
20862;DHT22;10591;52.532;13.348;2024-02-21T10:48:43;10.43;74.10
20862;DHT22;10591;52.532;13.348;2024-02-21T10:51:18;10.08;74.97
20862;DHT22;10591;52.532;13.348;2024-02-21T10:54:13;10.13;74.82
20862;DHT22;10591;52.532;13.348;2024-02-21T10:56:42;10.11;74.92
20862;DHT22;10591;52.532;13.348;2024-02-21T10:59:13;9.94;75.94
20862;DHT22;10591;52.532;13.348;2024-02-21T11:01:45;9.78;76.79
20862;DHT22;10591;52.532;13.348;2024-02-21T11:04:16;9.76;77.09
20862;DHT22;10591;52.532;13.348;2024-02-21T11:06:47;9.86;77.16
20862;DHT22;10591;52.532;13.348;2024-02-21T11:09:29;10.14;76.39
20862;DHT22;10591;52.532;13.348;2024-02-21T11:11:56;10.40;75.49
20862;DHT22;10591;52.532;13.348;2024-02-21T11:14:28;10.68;74.47
20862;DHT22;10591;52.532;13.348;2024-02-21T11:17:01;10.78;74.75
20862;DHT22;10591;52.532;13.348;2024-02-21T11:19:34;10.93;73.76
20862;DHT22;10591;52.532;13.348;2024-02-21T11:22:13;11.07;72.96
20862;DHT22;10591;52.532;13.348;2024-02-21T11:24:38;11.08;72.70
20862;DHT22;10591;52.532;13.348;2024-02-21T11:27:11;11.04;72.90
20862;DHT22;10591;52.532;13.348;2024-02-21T11:29:49;11.14;72.68
20862;DHT22;10591;52.532;13.348;2024-02-21T11:32:22;11.15;72.85
20862;DHT22;10591;52.532;13.348;2024-02-21T11:35:00;11.28;72.58
20862;DHT22;10591;52.532;13.348;2024-02-21T11:37:36;11.09;72.67
20862;DHT22;10591;52.532;13.348;2024-02-21T11:40:07;10.98;72.50
20862;DHT22;10591;52.532;13.348;2024-02-21T11:42:42;11.36;71.35
20862;DHT22;10591;52.532;13.348;2024-02-21T11:45:15;11.51;70.82
20862;DHT22;10591;52.532;13.348;2024-02-21T11:47:47;11.65;70.64
20862;DHT22;10591;52.532;13.348;2024-02-21T11:50:19;11.45;70.78
20862;DHT22;10591;52.532;13.348;2024-02-21T11:52:50;11.12;71.44
20862;DHT22;10591;52.532;13.348;2024-02-21T11:55:22;11.18;71.69
20862;DHT22;10591;52.532;13.348;2024-02-21T11:57:53;11.44;70.83
20862;DHT22;10591;52.532;13.348;2024-02-21T12:00:25;11.38;70.58
20862;DHT22;10591;52.532;13.348;2024-02-21T12:02:56;11.19;71.18
20862;DHT22;10591;52.532;13.348;2024-02-21T12:05:28;11.26;71.09
20862;DHT22;10591;52.532;13.348;2024-02-21T12:07:59;11.39;70.59
20862;DHT22;10591;52.532;13.348;2024-02-21T12:10:30;11.38;70.58
20862;DHT22;10591;52.532;13.348;2024-02-21T12:13:08;11.84;69.10
20862;DHT22;10591;52.532;13.348;2024-02-21T12:15:40;11.86;69.17
20862;DHT22;10591;52.532;13.348;2024-02-21T12:18:10;11.86;68.98
20862;DHT22;10591;52.532;13.348;2024-02-21T12:20:41;11.90;69.30
20862;DHT22;10591;52.532;13.348;2024-02-21T12:23:13;12.12;67.91
20862;DHT22;10591;52.532;13.348;2024-02-21T12:25:44;12.30;67.75
20862;DHT22;10591;52.532;13.348;2024-02-21T12:28:15;11.91;68.85
20862;DHT22;10591;52.532;13.348;2024-02-21T12:30:47;11.88;69.57
20862;DHT22;10591;52.532;13.348;2024-02-21T12:33:17;12.06;68.68
20862;DHT22;10591;52.532;13.348;2024-02-21T12:35:48;11.98;68.78
20862;DHT22;10591;52.532;13.348;2024-02-21T12:38:19;11.91;69.31
20862;DHT22;10591;52.532;13.348;2024-02-21T12:40:50;11.90;68.93
20862;DHT22;10591;52.532;13.348;2024-02-21T12:43:20;11.57;69.81
20862;DHT22;10591;52.532;13.348;2024-02-21T12:45:53;11.61;69.98
20862;DHT22;10591;52.532;13.348;2024-02-21T12:48:23;11.54;70.66
20862;DHT22;10591;52.532;13.348;2024-02-21T12:50:56;11.41;70.78
20862;DHT22;10591;52.532;13.348;2024-02-21T12:53:26;11.70;70.27
20862;DHT22;10591;52.532;13.348;2024-02-21T12:55:58;11.74;69.87
20862;DHT22;10591;52.532;13.348;2024-02-21T12:58:29;12.16;68.89
20862;DHT22;10591;52.532;13.348;2024-02-21T13:01:05;12.31;68.37
20862;DHT22;10591;52.532;13.348;2024-02-21T13:03:40;12.06;68.91
20862;DHT22;10591;52.532;13.348;2024-02-21T13:06:13;11.93;69.48
20862;DHT22;10591;52.532;13.348;2024-02-21T13:08:44;11.93;69.56
20862;DHT22;10591;52.532;13.348;2024-02-21T13:11:15;11.97;69.27
20862;DHT22;10591;52.532;13.348;2024-02-21T13:13:47;11.90;69.22
20862;DHT22;10591;52.532;13.348;2024-02-21T13:16:18;12.21;68.09
20862;DHT22;10591;52.532;13.348;2024-02-21T13:18:48;11.95;69.09
20862;DHT22;10591;52.532;13.348;2024-02-21T13:21:20;12.07;68.66
20862;DHT22;10591;52.532;13.348;2024-02-21T13:23:50;12.26;68.31
20862;DHT22;10591;52.532;13.348;2024-02-21T13:26:21;12.28;68.07
20862;DHT22;10591;52.532;13.348;2024-02-21T13:28:52;12.24;68.15
20862;DHT22;10591;52.532;13.348;2024-02-21T13:31:23;12.28;67.58
20862;DHT22;10591;52.532;13.348;2024-02-21T13:33:55;12.24;67.37
20862;DHT22;10591;52.532;13.348;2024-02-21T13:36:26;12.10;67.74
20862;DHT22;10591;52.532;13.348;2024-02-21T13:38:56;12.08;68.09
20862;DHT22;10591;52.532;13.348;2024-02-21T13:41:27;11.73;69.68
20862;DHT22;10591;52.532;13.348;2024-02-21T13:44:00;11.76;69.15
20862;DHT22;10591;52.532;13.348;2024-02-21T13:46:30;11.80;68.64
20862;DHT22;10591;52.532;13.348;2024-02-21T13:49:05;11.76;68.90
20862;DHT22;10591;52.532;13.348;2024-02-21T13:51:38;11.71;68.84
20862;DHT22;10591;52.532;13.348;2024-02-21T13:54:10;11.62;69.09
20862;DHT22;10591;52.532;13.348;2024-02-21T13:56:43;11.56;68.93
20862;DHT22;10591;52.532;13.348;2024-02-21T13:59:13;11.41;69.51
20862;DHT22;10591;52.532;13.348;2024-02-21T14:01:44;11.53;69.18
20862;DHT22;10591;52.532;13.348;2024-02-21T14:04:16;11.52;68.97
20862;DHT22;10591;52.532;13.348;2024-02-21T14:06:47;11.67;68.42
20862;DHT22;10591;52.532;13.348;2024-02-21T14:09:19;11.64;68.93
20862;DHT22;10591;52.532;13.348;2024-02-21T14:11:50;11.62;68.63
20862;DHT22;10591;52.532;13.348;2024-02-21T14:14:23;11.47;68.90
20862;DHT22;10591;52.532;13.348;2024-02-21T14:16:53;11.51;68.72
20862;DHT22;10591;52.532;13.348;2024-02-21T14:19:25;11.56;68.51
20862;DHT22;10591;52.532;13.348;2024-02-21T14:21:56;11.38;68.81
20862;DHT22;10591;52.532;13.348;2024-02-21T14:24:27;11.47;69.07
20862;DHT22;10591;52.532;13.348;2024-02-21T14:26:58;11.46;69.17
20862;DHT22;10591;52.532;13.348;2024-02-21T14:29:29;11.63;68.11
20862;DHT22;10591;52.532;13.348;2024-02-21T14:32:00;11.67;67.96
20862;DHT22;10591;52.532;13.348;2024-02-21T14:34:30;11.76;67.84
20862;DHT22;10591;52.532;13.348;2024-02-21T14:37:01;11.75;68.03
20862;DHT22;10591;52.532;13.348;2024-02-21T14:39:34;11.62;67.89
20862;DHT22;10591;52.532;13.348;2024-02-21T14:42:05;11.64;67.87
20862;DHT22;10591;52.532;13.348;2024-02-21T14:44:37;11.47;68.30
20862;DHT22;10591;52.532;13.348;2024-02-21T14:47:08;11.51;68.01
20862;DHT22;10591;52.532;13.348;2024-02-21T14:49:39;11.40;67.93
20862;DHT22;10591;52.532;13.348;2024-02-21T14:52:10;11.56;68.13
20862;DHT22;10591;52.532;13.348;2024-02-21T14:54:41;11.54;68.13
20862;DHT22;10591;52.532;13.348;2024-02-21T14:57:13;11.61;67.95
20862;DHT22;10591;52.532;13.348;2024-02-21T14:59:44;11.79;67.46
20862;DHT22;10591;52.532;13.348;2024-02-21T15:02:15;11.69;67.60
20862;DHT22;10591;52.532;13.348;2024-02-21T15:04:46;11.76;67.57
20862;DHT22;10591;52.532;13.348;2024-02-21T15:07:17;11.62;68.63
20862;DHT22;10591;52.532;13.348;2024-02-21T15:09:48;11.54;68.18
20862;DHT22;10591;52.532;13.348;2024-02-21T15:12:19;11.56;68.10
20862;DHT22;10591;52.532;13.348;2024-02-21T15:14:50;11.58;68.43
20862;DHT22;10591;52.532;13.348;2024-02-21T15:17:21;11.40;68.91
20862;DHT22;10591;52.532;13.348;2024-02-21T15:19:52;11.45;68.79
20862;DHT22;10591;52.532;13.348;2024-02-21T15:22:24;11.34;67.79
20862;DHT22;10591;52.532;13.348;2024-02-21T15:24:55;11.21;68.61
20862;DHT22;10591;52.532;13.348;2024-02-21T15:27:27;11.21;68.34
20862;DHT22;10591;52.532;13.348;2024-02-21T15:30:02;11.06;68.98
20862;DHT22;10591;52.532;13.348;2024-02-21T15:32:39;10.79;69.69
20862;DHT22;10591;52.532;13.348;2024-02-21T15:35:15;10.70;69.94
20862;DHT22;10591;52.532;13.348;2024-02-21T15:37:47;10.94;71.37
20862;DHT22;10591;52.532;13.348;2024-02-21T15:40:18;10.82;70.36
20862;DHT22;10591;52.532;13.348;2024-02-21T15:42:49;10.82;70.69
20862;DHT22;10591;52.532;13.348;2024-02-21T15:45:19;10.68;70.53
20862;DHT22;10591;52.532;13.348;2024-02-21T15:47:51;10.64;70.20
20862;DHT22;10591;52.532;13.348;2024-02-21T15:50:23;10.58;69.57
20862;DHT22;10591;52.532;13.348;2024-02-21T15:52:56;10.42;70.11
20862;DHT22;10591;52.532;13.348;2024-02-21T15:55:26;10.36;70.49